Time;durP1;ratioP1;P1;durP2;ratioP2;P2;SDS_P1;SDS_P2;PMS_P1;PMS_P2;Temp;Humidity;BMP_temperature;BMP_pressure;BME280_temperature;BME280_humidity;BME280_pressure;Samples;Min_cycle;Max_cycle;Signal;HPM_P1;HPM_P2
2022/05/27 00:01:14;;;;;;;4.08;2.75;;;;;;;15.94;58.98;100244.51;2243523;77;20946;-74
2022/05/27 00:04:15;;;;;;;4.85;2.55;;;;;;;15.91;59.14;100236.87;2247588;77;20989;-73
2022/05/27 00:07:16;;;;;;;3.52;2.40;;;;;;;15.91;59.27;100233.69;2257150;77;20950;-74
2022/05/27 00:10:18;;;;;;;5.12;2.52;;;;;;;15.88;59.18;100232.75;2242624;77;21044;-73
2022/05/27 00:13:19;;;;;;;3.08;2.60;;;;;;;15.85;59.28;100228.28;2251603;77;21552;-74
2022/05/27 00:16:20;;;;;;;7.00;2.45;;;;;;;15.82;59.40;100229.50;2247966;77;21006;-73
2022/05/27 00:19:21;;;;;;;3.83;2.10;;;;;;;15.77;59.54;100225.28;2246864;77;21030;-74
2022/05/27 00:22:23;;;;;;;5.87;2.45;;;;;;;15.75;59.61;100219.30;2243381;77;20985;-74
2022/05/27 00:25:24;;;;;;;4.70;2.33;;;;;;;15.77;59.79;100216.41;2240862;77;20994;-74
2022/05/27 00:28:25;;;;;;;4.15;3.05;;;;;;;15.71;59.75;100206.50;2238894;78;21049;-73
2022/05/27 00:31:27;;;;;;;3.52;2.58;;;;;;;15.71;59.79;100211.85;2234818;78;20955;-73
2022/05/27 00:34:28;;;;;;;4.87;2.77;;;;;;;15.67;59.90;100200.70;2248847;78;21008;-73
2022/05/27 00:37:29;;;;;;;3.37;2.50;;;;;;;15.66;59.99;100201.73;2236981;78;21010;-74
2022/05/27 00:40:41;;;;;;;3.27;2.22;;;;;;;15.64;60.09;100201.09;2237615;77;21005;-73
2022/05/27 00:43:44;;;;;;;6.92;2.87;;;;;;;15.59;60.16;100193.66;2234130;78;21005;-73
2022/05/27 00:46:46;;;;;;;5.05;2.55;;;;;;;15.57;60.25;100189.04;2235142;78;21583;-74
2022/05/27 00:49:58;;;;;;;5.37;2.55;;;;;;;15.58;60.37;100184.00;2235678;78;20994;-76
2022/05/27 00:53:05;;;;;;;3.40;2.30;;;;;;;15.58;60.40;100187.19;2232500;78;21018;-73
2022/05/27 00:56:09;;;;;;;4.55;2.65;;;;;;;15.55;60.49;100181.72;2247651;78;21006;-74
2022/05/27 00:59:34;;;;;;;2.62;2.40;;;;;;;15.53;60.48;100181.08;2237783;78;21549;-74
2022/05/27 01:02:36;;;;;;;5.08;2.50;;;;;;;15.51;60.56;100181.78;2236664;77;21303;-73
2022/05/27 01:05:41;;;;;;;4.75;2.20;;;;;;;15.49;60.66;100177.68;2247880;78;20939;-73
2022/05/27 01:08:44;;;;;;;3.77;2.40;;;;;;;15.47;60.72;100176.53;2220283;78;20939;-73
2022/05/27 01:12:05;;;;;;;6.80;2.27;;;;;;;15.43;60.67;100173.95;2245368;78;21009;-73
2022/05/27 01:15:43;;;;;;;3.50;2.20;;;;;;;15.42;60.79;100170.42;2233759;77;20971;-73
2022/05/27 01:22:40;;;;;;;4.80;2.45;;;;;;;15.39;60.83;100161.98;2230517;78;20955;-73
2022/05/27 01:25:57;;;;;;;3.22;2.15;;;;;;;15.37;60.86;100160.00;2230999;78;21782;-73
2022/05/27 01:29:26;;;;;;;4.47;2.12;;;;;;;15.38;60.84;100158.48;2241695;78;21077;-74
2022/05/27 01:32:42;;;;;;;5.40;2.10;;;;;;;15.38;60.87;100158.48;2234585;77;20946;-74
2022/05/27 01:36:37;;;;;;;5.33;2.40;;;;;;;15.38;60.87;100149.64;2231616;78;21053;-73
2022/05/27 01:39:55;;;;;;;4.10;2.05;;;;;;;15.38;60.95;100154.48;2244531;78;21064;-76
2022/05/27 01:43:20;;;;;;;7.85;2.42;;;;;;;15.38;61.07;100141.63;2243521;78;21476;-74
2022/05/27 01:46:36;;;;;;;5.35;2.37;;;;;;;15.36;61.09;100136.98;2231409;78;21006;-73
2022/05/27 01:49:49;;;;;;;5.58;2.33;;;;;;;15.34;61.26;100137.67;2237787;78;21077;-74
2022/05/27 01:52:55;;;;;;;4.83;2.17;;;;;;;15.30;61.29;100135.92;2241070;78;21366;-75
2022/05/27 01:56:36;;;;;;;6.20;2.15;;;;;;;15.31;61.33;100131.39;2242433;78;21045;-73
2022/05/27 02:00:05;;;;;;;3.98;2.20;;;;;;;15.29;61.41;100122.73;2232524;78;20983;-73
2022/05/27 02:03:17;;;;;;;4.60;2.10;;;;;;;15.26;61.49;100119.97;2233034;78;21022;-74
2022/05/27 02:06:26;;;;;;;2.72;1.82;;;;;;;15.25;61.58;100119.13;2230098;78;21045;-73
2022/05/27 02:09:33;;;;;;;5.22;2.08;;;;;;;15.25;61.61;100115.11;2236420;77;21026;-73
2022/05/27 02:12:45;;;;;;;3.02;1.92;;;;;;;15.24;61.56;100104.64;2248414;78;20995;-73
2022/05/27 02:15:49;;;;;;;6.80;2.20;;;;;;;15.21;61.70;100099.17;2232528;78;21879;-72
2022/05/27 02:18:58;;;;;;;4.92;2.95;;;;;;;15.20;61.89;100096.20;2225403;78;21057;-73
2022/05/27 02:22:07;;;;;;;3.77;2.25;;;;;;;15.19;61.91;100091.86;2240262;77;21098;-73
2022/05/27 02:25:25;;;;;;;5.83;2.20;;;;;;;15.21;61.96;100085.81;2240709;78;20938;-73
2022/05/27 02:28:35;;;;;;;4.65;1.90;;;;;;;15.20;61.92;100091.34;2237274;77;21425;-73
2022/05/27 02:31:43;;;;;;;2.40;1.62;;;;;;;15.17;61.91;100076.52;2245032;77;21338;-73
2022/05/27 02:35:10;;;;;;;8.05;2.20;;;;;;;15.17;62.00;100085.88;2252648;77;22341;-73
2022/05/27 02:38:11;;;;;;;7.20;2.12;;;;;;;15.18;62.15;100084.05;2253539;77;21500;-73
2022/05/27 02:41:32;;;;;;;4.75;1.82;;;;;;;15.17;62.08;100074.36;2239290;77;21004;-74
2022/05/27 02:44:57;;;;;;;6.12;2.62;;;;;;;15.18;62.03;100069.35;2245746;77;20962;-73
2022/05/27 02:48:35;;;;;;;5.03;1.52;;;;;;;15.18;62.04;100067.50;2247065;77;20966;-73
2022/05/27 02:52:18;;;;;;;2.83;1.67;;;;;;;15.20;62.09;100056.11;2239476;77;21319;-74
2022/05/27 02:55:30;;;;;;;2.45;1.50;;;;;;;15.24;62.09;100059.20;2240128;77;21578;-73
2022/05/27 02:58:32;;;;;;;5.85;1.95;;;;;;;15.29;61.95;100046.55;2245710;77;20915;-75
2022/05/27 03:01:33;;;;;;;3.40;1.70;;;;;;;15.32;61.90;100042.99;2246228;77;21022;-73
2022/05/27 03:04:36;;;;;;;3.77;2.17;;;;;;;15.33;61.85;100039.28;2244755;77;20984;-74
2022/05/27 03:07:56;;;;;;;2.25;1.70;;;;;;;15.36;61.71;100035.39;2239733;77;21000;-73
2022/05/27 03:11:14;;;;;;;4.53;1.50;;;;;;;15.39;61.70;100037.66;2230456;77;21061;-74
2022/05/27 03:14:55;;;;;;;1.87;1.57;;;;;;;15.40;61.68;100034.80;2248220;77;20947;-74
2022/05/27 03:18:23;;;;;;;3.08;1.50;;;;;;;15.43;61.63;100032.24;2249837;77;21507;-73
2022/05/27 03:21:41;;;;;;;2.33;1.65;;;;;;;15.45;61.61;100026.16;2218358;77;21025;-74
2022/05/27 03:24:57;;;;;;;7.47;1.80;;;;;;;15.49;61.43;100025.27;2249769;77;21021;-73
2022/05/27 03:28:12;;;;;;;6.55;2.17;;;;;;;15.55;61.41;100025.80;2243516;77;21022;-73
2022/05/27 03:31:42;;;;;;;2.83;1.27;;;;;;;15.58;61.27;100017.37;2241643;77;20954;-73
2022/05/27 03:34:51;;;;;;;4.75;1.50;;;;;;;15.61;61.20;100019.12;2238779;77;21052;-75
2022/05/27 03:38:00;;;;;;;3.37;1.72;;;;;;;15.65;61.17;100013.69;2251172;77;21020;-73
2022/05/27 03:41:07;;;;;;;2.95;1.42;;;;;;;15.67;61.16;100017.48;2247306;77;20997;-74
2022/05/27 03:44:15;;;;;;;6.03;1.57;;;;;;;15.66;61.15;100012.66;2252334;77;21548;-73
2022/05/27 03:47:17;;;;;;;2.50;1.77;;;;;;;15.69;61.11;100014.13;2244453;77;21576;-72
2022/05/27 03:50:25;;;;;;;3.30;1.72;;;;;;;15.68;61.18;100007.97;2244129;77;21461;-72
2022/05/27 03:54:03;;;;;;;4.83;1.57;;;;;;;15.71;61.19;100008.56;2243413;77;20958;-71
2022/05/27 03:56:34;;;;;;;5.65;1.60;;;;;;;15.71;61.19;100012.58;2242783;77;20930;-75
2022/05/27 03:59:36;;;;;;;3.33;1.40;;;;;;;15.69;61.29;100009.60;2243259;77;21599;-70
2022/05/27 04:02:37;;;;;;;1.75;1.50;;;;;;;15.70;61.32;100007.75;2249646;77;20997;-71
2022/05/27 04:05:39;;;;;;;5.55;1.40;;;;;;;15.67;61.26;100000.92;2241521;77;21067;-69
2022/05/27 04:08:40;;;;;;;4.37;1.75;;;;;;;15.69;61.40;100001.58;2245392;77;21449;-68
2022/05/27 04:11:42;;;;;;;3.98;1.70;;;;;;;15.71;61.45;100003.22;2241326;77;21543;-72
2022/05/27 04:14:43;;;;;;;4.03;1.77;;;;;;;15.71;61.56;99998.72;2249977;77;20969;-71
2022/05/27 04:17:45;;;;;;;3.75;1.55;;;;;;;15.71;61.47;100001.39;2255255;77;21036;-71
2022/05/27 04:20:46;;;;;;;2.83;1.30;;;;;;;15.75;61.58;100004.47;2245156;77;20954;-70
2022/05/27 04:23:47;;;;;;;4.35;1.90;;;;;;;15.74;61.58;99996.97;2244906;77;21485;-71
2022/05/27 04:26:48;;;;;;;4.55;1.60;;;;;;;15.75;61.72;100002.63;2241864;77;20978;-71
2022/05/27 04:29:51;;;;;;;3.77;1.50;;;;;;;15.76;61.69;99998.09;2244121;78;21017;-71
2022/05/27 04:32:53;;;;;;;2.85;1.60;;;;;;;15.74;61.78;99998.30;2244337;78;20951;-72
2022/05/27 04:35:55;;;;;;;2.72;1.75;;;;;;;15.71;61.89;99993.37;2242650;78;20989;-76
2022/05/27 04:38:57;;;;;;;5.37;1.65;;;;;;;15.72;62.07;99996.86;2238759;77;21297;-73
2022/05/27 04:41:59;;;;;;;3.85;1.60;;;;;;;15.72;62.24;99989.66;2241696;78;20986;-74
2022/05/27 04:45:00;;;;;;;2.55;1.60;;;;;;;15.71;62.20;99987.17;2244075;78;21063;-74
2022/05/27 04:48:01;;;;;;;5.03;1.95;;;;;;;15.71;62.31;99985.83;2256767;78;20954;-70
2022/05/27 04:51:03;;;;;;;4.47;1.98;;;;;;;15.67;62.62;99970.16;2241417;78;21056;-72
2022/05/27 04:54:04;;;;;;;7.45;2.00;;;;;;;15.68;62.68;99962.98;2243146;78;20981;-71
2022/05/27 04:57:06;;;;;;;3.42;1.98;;;;;;;15.70;62.65;99964.95;2238553;78;20946;-72
2022/05/27 05:00:16;;;;;;;3.50;1.82;;;;;;;15.68;62.75;99966.51;2246434;78;20969;-72
2022/05/27 05:03:20;;;;;;;2.65;1.60;;;;;;;15.71;62.69;99971.97;2245781;78;21044;-73
2022/05/27 05:06:21;;;;;;;9.28;2.47;;;;;;;15.74;62.79;99966.70;2240782;78;21075;-71
2022/05/27 05:09:22;;;;;;;2.80;1.50;;;;;;;15.77;62.95;99970.30;2243150;78;21005;-72
2022/05/27 05:12:23;;;;;;;3.70;1.77;;;;;;;15.81;63.20;99968.88;2244086;78;21575;-69
2022/05/27 05:15:26;;;;;;;5.12;1.85;;;;;;;15.85;63.10;99968.27;2244450;78;20994;-71
2022/05/27 05:18:28;;;;;;;8.08;1.85;;;;;;;15.90;63.29;99969.80;2240683;77;21560;-71
2022/05/27 05:21:29;;;;;;;5.25;1.67;;;;;;;15.97;63.23;99969.82;2245548;78;20990;-71
2022/05/27 05:24:33;;;;;;;4.03;1.55;;;;;;;16.03;63.35;99973.01;2244961;78;21506;-71
2022/05/27 05:27:34;;;;;;;3.52;1.62;;;;;;;16.08;63.32;99964.38;2241740;77;21030;-70
2022/05/27 05:30:36;;;;;;;3.77;1.85;;;;;;;16.12;63.41;99968.27;2245454;77;20950;-72
2022/05/27 05:33:37;;;;;;;5.37;2.02;;;;;;;16.14;63.49;99959.00;2244923;77;21001;-71
2022/05/27 05:36:38;;;;;;;2.60;1.90;;;;;;;16.18;63.82;99959.92;2249183;77;20932;-70
2022/05/27 05:39:44;;;;;;;3.10;1.80;;;;;;;16.19;63.80;99960.22;2244881;77;21315;-71
2022/05/27 05:42:47;;;;;;;4.42;2.00;;;;;;;16.21;64.07;99956.83;2247657;77;20993;-70
2022/05/27 05:45:49;;;;;;;7.30;2.00;;;;;;;16.21;64.25;99954.16;2248364;77;20957;-70
2022/05/27 05:48:52;;;;;;;7.30;1.80;;;;;;;16.23;64.37;99959.61;2257303;77;22189;-70
2022/05/27 05:51:57;;;;;;;5.60;1.87;;;;;;;16.29;64.50;99964.66;2241769;77;21021;-71
2022/05/27 05:54:59;;;;;;;3.90;1.67;;;;;;;16.30;64.63;99959.59;2242942;77;20954;-71
2022/05/27 05:58:00;;;;;;;4.37;1.70;;;;;;;16.34;64.81;99952.81;2248423;77;21476;-70
2022/05/27 06:01:03;;;;;;;4.35;1.87;;;;;;;16.36;64.73;99944.06;2249723;77;21543;-74
2022/05/27 06:04:04;;;;;;;5.17;2.02;;;;;;;16.38;64.76;99943.31;2241674;77;21492;-71
2022/05/27 06:07:08;;;;;;;4.92;1.90;;;;;;;16.41;64.73;99946.09;2241566;77;20939;-70
2022/05/27 06:10:11;;;;;;;4.22;1.60;;;;;;;16.42;64.87;99944.56;2239686;77;21049;-70
2022/05/27 06:13:13;;;;;;;3.45;1.70;;;;;;;16.48;64.69;99942.38;2245730;77;20954;-69
2022/05/27 06:16:14;;;;;;;3.83;1.75;;;;;;;16.51;65.01;99934.45;2248620;77;21562;-69
2022/05/27 06:19:16;;;;;;;6.03;2.05;;;;;;;16.56;64.99;99928.77;2241717;77;21002;-71
2022/05/27 06:22:19;;;;;;;5.92;2.50;;;;;;;16.66;65.05;99934.19;2244416;77;21320;-70
2022/05/27 06:25:22;;;;;;;3.42;1.90;;;;;;;16.73;64.87;99935.82;2237632;77;21089;-70
2022/05/27 06:35:05;;;;;;;3.95;2.37;;;;;;;16.92;64.82;99939.50;2237200;78;21050;-71
2022/05/27 06:38:06;;;;;;;3.42;1.72;;;;;;;16.96;64.70;99935.34;2236213;78;21645;-73
2022/05/27 06:41:07;;;;;;;3.95;1.95;;;;;;;17.01;64.62;99937.40;2241886;78;22172;-70
2022/05/27 06:44:09;;;;;;;6.25;2.25;;;;;;;17.02;64.05;99930.47;2245131;77;20934;-70
2022/05/27 06:47:11;;;;;;;3.33;1.50;;;;;;;17.01;64.15;99926.67;2243822;77;20982;-72
2022/05/27 06:50:13;;;;;;;5.45;2.22;;;;;;;17.00;64.02;99929.03;2246740;77;20939;-70
2022/05/27 06:53:14;;;;;;;3.22;1.92;;;;;;;16.99;63.85;99934.10;2237403;78;21291;-71
2022/05/27 06:56:15;;;;;;;4.65;1.85;;;;;;;16.90;63.66;99934.86;2244736;78;21136;-73
2022/05/27 06:59:17;;;;;;;5.05;1.90;;;;;;;16.86;63.88;99934.15;2238095;78;21476;-72
2022/05/27 07:02:19;;;;;;;6.67;1.90;;;;;;;16.80;64.03;99941.17;2244152;77;21417;-70
2022/05/27 07:05:20;;;;;;;6.60;2.30;;;;;;;16.75;63.95;99932.91;2239716;77;21568;-72
2022/05/27 07:08:22;;;;;;;5.05;1.80;;;;;;;16.67;63.68;99939.34;2247284;77;21468;-71
2022/05/27 07:11:23;;;;;;;4.15;1.90;;;;;;;16.55;62.90;99927.63;2242703;77;20974;-70
2022/05/27 07:14:25;;;;;;;2.98;1.70;;;;;;;16.48;63.11;99935.69;2246544;78;20930;-71
2022/05/27 07:17:26;;;;;;;4.90;2.17;;;;;;;16.45;63.30;99935.29;2242974;78;21299;-71
2022/05/27 07:20:27;;;;;;;6.60;3.10;;;;;;;16.35;63.71;99940.53;2246330;78;20946;-71
2022/05/27 07:23:28;;;;;;;6.85;3.50;;;;;;;16.19;64.47;99944.16;2240577;78;21457;-71
2022/05/27 07:26:29;;;;;;;13.38;3.90;;;;;;;15.98;64.81;99938.53;2246676;78;20959;-73
2022/05/27 07:29:30;;;;;;;4.78;3.58;;;;;;;15.80;65.85;99948.52;2235684;78;21544;-71
2022/05/27 07:32:36;;;;;;;6.95;3.35;;;;;;;15.64;66.86;99954.52;2241972;78;21040;-71
2022/05/27 07:35:38;;;;;;;6.20;3.50;;;;;;;15.47;67.02;99956.76;2244725;78;20930;-74
2022/05/27 07:38:41;;;;;;;4.95;3.55;;;;;;;15.31;67.49;99958.98;2237210;78;21074;-71
2022/05/27 07:41:42;;;;;;;5.22;3.52;;;;;;;15.17;68.19;99960.78;2239589;78;21453;-71
2022/05/27 07:44:44;;;;;;;10.18;3.98;;;;;;;15.05;69.16;99969.07;2248370;78;21047;-71
2022/05/27 07:47:45;;;;;;;5.78;3.98;;;;;;;14.90;69.06;99973.23;2244836;78;20998;-70
2022/05/27 07:50:46;;;;;;;7.17;4.75;;;;;;;14.82;70.45;99976.88;2240176;78;21503;-72
2022/05/27 07:53:47;;;;;;;11.08;5.87;;;;;;;14.67;71.63;99976.16;2230263;77;21025;-71
2022/05/27 07:56:49;;;;;;;7.67;4.65;;;;;;;14.55;71.66;99986.06;2237373;78;21065;-71
2022/05/27 08:00:04;;;;;;;8.13;4.75;;;;;;;14.44;72.70;99989.75;2239716;78;20971;-70
2022/05/27 08:03:07;;;;;;;5.28;4.40;;;;;;;14.33;72.33;99991.96;2238360;78;21025;-71
2022/05/27 08:06:10;;;;;;;4.67;3.95;;;;;;;14.24;72.73;99997.62;2240459;78;20959;-74
2022/05/27 08:09:13;;;;;;;3.85;1.95;;;;;;;14.19;73.00;99996.88;2246133;78;21042;-73
2022/05/27 08:12:16;;;;;;;2.00;1.42;;;;;;;14.05;73.41;99992.43;2232865;78;20975;-70
2022/05/27 08:15:18;;;;;;;3.08;1.40;;;;;;;13.75;73.79;100000.58;2237680;78;21523;-69
2022/05/27 08:18:22;;;;;;;5.95;2.15;;;;;;;13.51;73.47;100007.09;2245074;78;21018;-70
2022/05/27 08:21:25;;;;;;;3.80;1.70;;;;;;;13.31;74.07;100001.54;2243153;78;21465;-68
2022/05/27 08:24:26;;;;;;;7.28;2.45;;;;;;;13.18;75.10;100000.04;2237527;78;21071;-69
2022/05/27 08:27:28;;;;;;;4.83;3.12;;;;;;;13.07;75.00;100006.66;2241514;78;21037;-70
2022/05/27 08:30:34;;;;;;;8.40;3.20;;;;;;;13.01;76.32;100006.90;2244616;78;21029;-69
2022/05/27 08:40:31;;;;;;;;;;;;;;;12.82;76.24;100007.97;2248164;78;21433;-70
2022/05/27 08:43:47;;;;;;;2.25;1.52;;;;;;;12.67;75.71;100019.44;2242825;78;20208;-70
2022/05/27 08:47:21;;;;;;;3.20;1.77;;;;;;;12.59;75.67;100024.03;2235471;78;21575;-69
2022/05/27 08:50:49;;;;;;;10.53;1.60;;;;;;;12.54;75.66;100016.06;2242489;78;21441;-69
2022/05/27 08:53:58;;;;;;;4.55;1.75;;;;;;;12.53;75.66;100031.72;2250986;78;21073;-69
2022/05/27 09:00:27;;;;;;;11.28;4.47;;;;;;;12.50;75.54;100025.91;2246307;78;21270;-69
2022/05/27 09:03:34;;;;;;;10.00;3.87;;;;;;;12.50;75.20;100027.25;2246866;78;21449;-73
2022/05/27 09:07:22;;;;;;;7.83;3.75;;;;;;;12.57;75.20;100030.84;2245521;78;20950;-70
2022/05/27 09:10:37;;;;;;;6.20;3.12;;;;;;;12.60;75.42;100034.98;2233429;78;21472;-69
2022/05/27 09:13:56;;;;;;;5.35;3.67;;;;;;;12.56;74.75;100020.71;2244921;78;20954;-73
2022/05/27 09:17:05;;;;;;;8.33;2.55;;;;;;;12.60;74.73;100016.35;2239889;78;21012;-68
2022/05/27 09:20:12;;;;;;;6.90;3.55;;;;;;;12.63;74.67;100019.47;2243112;78;21092;-69
2022/05/27 09:23:49;;;;;;;4.42;1.95;;;;;;;12.70;74.64;100015.59;2244517;78;21041;-70
2022/05/27 09:26:58;;;;;;;3.08;1.55;;;;;;;12.72;74.43;100022.36;2243686;78;20974;-73
2022/05/27 09:30:13;;;;;;;3.20;1.52;;;;;;;12.72;74.32;100031.67;2243702;78;21031;-70
2022/05/27 09:33:17;;;;;;;2.72;1.70;;;;;;;12.74;74.21;100031.50;2235868;78;21041;-69
2022/05/27 09:36:24;;;;;;;2.60;1.40;;;;;;;12.75;74.37;100043.31;2219490;78;20959;-69
2022/05/27 09:39:26;;;;;;;2.02;1.75;;;;;;;12.72;74.38;100050.82;2237183;78;21025;-69
2022/05/27 09:42:52;;;;;;;4.37;1.92;;;;;;;12.76;74.50;100048.13;2248606;78;21559;-69
2022/05/27 09:45:58;;;;;;;2.95;1.87;;;;;;;12.75;74.45;100043.31;2240566;78;21594;-69
2022/05/27 09:49:00;;;;;;;2.12;1.50;;;;;;;12.70;74.77;100048.36;2243110;78;21040;-70
2022/05/27 09:52:02;;;;;;;4.83;2.00;;;;;;;12.60;74.73;100041.64;2243986;78;21022;-70
2022/05/27 09:55:43;;;;;;;3.77;2.00;;;;;;;12.48;75.04;100050.06;2236153;78;21065;-71
2022/05/27 09:58:46;;;;;;;7.03;4.35;;;;;;;12.47;75.27;100040.44;2242089;78;21049;-70
2022/05/27 10:01:48;;;;;;;4.62;3.15;;;;;;;12.45;75.94;100057.08;2243223;78;21032;-74
2022/05/27 10:05:14;;;;;;;3.70;2.12;;;;;;;12.41;75.96;100046.45;2239083;78;20990;-69
2022/05/27 10:08:30;;;;;;;4.37;2.15;;;;;;;12.44;75.93;100063.39;2248973;78;20978;-68
2022/05/27 10:11:48;;;;;;;2.50;1.90;;;;;;;12.42;75.93;100059.28;2242926;78;21113;-69
2022/05/27 10:14:51;;;;;;;4.28;1.82;;;;;;;12.36;76.08;100067.48;2246037;78;20950;-69
2022/05/27 10:17:53;;;;;;;2.45;1.70;;;;;;;12.39;76.44;100064.45;2240210;78;21057;-73
2022/05/27 10:21:02;;;;;;;2.60;1.72;;;;;;;12.46;76.47;100055.23;2247074;78;21000;-69
2022/05/27 10:24:26;;;;;;;2.60;1.70;;;;;;;12.53;76.51;100062.33;2221291;78;21391;-73
2022/05/27 10:27:44;;;;;;;1.95;1.80;;;;;;;12.61;77.02;100056.59;2176092;78;20945;-69
2022/05/27 10:31:02;;;;;;;2.62;1.80;;;;;;;12.65;76.69;100050.73;2225808;78;21514;-69
2022/05/27 10:34:04;;;;;;;3.92;1.95;;;;;;;12.70;77.06;100034.23;2241469;78;20987;-69
2022/05/27 10:37:14;;;;;;;26.50;13.83;;;;;;;12.76;77.03;100042.80;2243414;78;20978;-69
2022/05/27 10:40:54;;;;;;;31.85;18.70;;;;;;;12.86;77.66;100043.86;2243832;78;21635;-74
2022/05/27 10:44:22;;;;;;;7.75;5.28;;;;;;;12.89;77.48;100044.30;2244654;78;21058;-67
2022/05/27 10:47:32;;;;;;;35.65;20.75;;;;;;;13.01;77.54;100041.52;2244075;78;20908;-68
2022/05/27 10:51:11;;;;;;;13.65;7.12;;;;;;;13.09;77.91;100043.75;2243149;78;21017;-71
2022/05/27 10:54:24;;;;;;;16.47;6.93;;;;;;;13.17;77.71;100051.65;2241187;78;21109;-69
2022/05/27 11:05:41;;;;;;;11.90;5.72;;;;;;;13.13;77.75;100019.23;2244141;77;21049;-70
2022/05/27 11:09:36;;;;;;;16.27;6.97;;;;;;;13.10;77.74;100025.45;2236013;78;20892;-69
2022/05/27 11:17:14;;;;;;;7.03;3.55;;;;;;;13.03;77.99;100033.33;2241421;78;21011;-71
2022/05/27 11:20:45;;;;;;;14.13;4.97;;;;;;;13.05;78.07;100027.83;2246755;78;21438;-73
2022/05/27 11:24:00;;;;;;;8.68;3.95;;;;;;;13.09;78.25;100037.09;2213438;78;20974;-70
2022/05/27 11:27:10;;;;;;;6.10;3.40;;;;;;;13.17;78.55;100040.99;2244938;78;21335;-71
2022/05/27 11:30:36;;;;;;;4.80;3.50;;;;;;;13.19;78.14;100027.81;2245284;77;21049;-70
2022/05/27 11:34:09;;;;;;;4.50;2.72;;;;;;;13.20;78.16;100000.66;2250001;77;21452;-69
2022/05/27 11:37:32;;;;;;;3.95;2.67;;;;;;;13.24;78.26;99997.95;2253644;77;21092;-72
2022/05/27 11:41:16;;;;;;;3.55;2.60;;;;;;;13.21;78.09;100000.48;2249142;77;21695;-70
2022/05/27 11:44:31;;;;;;;5.35;3.08;;;;;;;13.24;78.18;99999.28;2245330;77;21010;-69
2022/05/27 11:48:03;;;;;;;5.28;3.20;;;;;;;13.27;78.32;99988.28;2232434;77;20980;-69
2022/05/27 11:51:37;;;;;;;5.30;2.22;;;;;;;13.32;78.34;99985.04;2251010;77;20937;-70
2022/05/27 11:54:56;;;;;;;2.47;2.25;;;;;;;13.34;78.13;100003.00;2245238;77;21033;-70
2022/05/27 11:58:23;;;;;;;4.30;2.77;;;;;;;13.35;78.73;99987.36;2219313;77;21013;-70
2022/05/27 12:01:36;;;;;;;4.20;2.75;;;;;;;13.34;78.30;99972.36;2246176;77;21036;-70
2022/05/27 12:04:57;;;;;;;5.03;2.90;;;;;;;13.33;78.75;100006.70;2251841;77;20930;-70
2022/05/27 12:08:39;;;;;;;5.17;3.27;;;;;;;13.25;78.98;100012.92;2257460;77;20993;-69
2022/05/27 12:11:55;;;;;;;6.42;3.65;;;;;;;13.15;78.41;100032.35;2244022;77;21088;-69
2022/05/27 12:15:04;;;;;;;5.90;2.70;;;;;;;13.01;77.82;99960.29;2259553;77;21243;-70
2022/05/27 12:18:22;;;;;;;2.20;1.82;;;;;;;12.97;77.84;100016.77;2254446;77;21496;-70
2022/05/27 12:21:35;;;;;;;2.65;2.00;;;;;;;12.91;77.66;100026.83;2246132;77;20966;-69
2022/05/27 12:24:50;;;;;;;4.53;2.22;;;;;;;12.87;77.86;100013.06;2249106;77;20979;-70
2022/05/27 12:27:55;;;;;;;3.05;1.90;;;;;;;12.88;77.83;100005.38;2253594;77;20997;-70
2022/05/27 12:31:00;;;;;;;2.67;2.15;;;;;;;12.90;77.79;99994.05;2236922;78;21632;-70
2022/05/27 12:34:30;;;;;;;3.08;2.30;;;;;;;12.87;77.67;99994.42;2241369;78;21005;-70
2022/05/27 12:37:32;;;;;;;4.65;2.55;;;;;;;12.90;77.58;99994.56;2235047;78;21035;-70
2022/05/27 12:40:48;;;;;;;5.33;2.22;;;;;;;12.93;77.73;99995.52;2237965;77;21005;-72
2022/05/27 12:44:00;;;;;;;4.65;3.15;;;;;;;12.92;77.63;99986.71;2241939;78;21041;-71
2022/05/27 12:47:04;;;;;;;6.12;3.12;;;;;;;12.94;77.61;99983.34;2242824;77;20985;-70
2022/05/27 12:50:13;;;;;;;5.08;2.85;;;;;;;12.97;77.54;99981.62;2233824;78;21112;-71
2022/05/27 12:53:23;;;;;;;3.47;2.52;;;;;;;13.03;77.66;99987.23;2240663;78;20981;-70
2022/05/27 13:03:37;;;;;;;3.87;2.35;;;;;;;13.21;77.72;99979.17;2230124;78;20975;-69
2022/05/27 13:06:42;;;;;;;5.83;2.85;;;;;;;13.31;77.57;99962.08;2231627;78;21010;-72
2022/05/27 13:09:46;;;;;;;5.12;3.00;;;;;;;13.39;77.26;99952.64;2241233;78;21049;-70
2022/05/27 13:12:53;;;;;;;11.53;2.58;;;;;;;13.46;77.31;99929.56;2240218;78;21089;-70
2022/05/27 13:16:11;;;;;;;4.87;2.70;;;;;;;13.64;77.39;99942.44;2233326;78;20955;-69
2022/05/27 13:19:45;;;;;;;6.92;2.45;;;;;;;13.81;77.31;99921.66;2241171;78;20950;-70
2022/05/27 13:23:00;;;;;;;4.10;2.50;;;;;;;14.06;77.56;99914.06;2231635;78;21818;-71
2022/05/27 13:26:15;;;;;;;4.35;2.40;;;;;;;14.21;76.96;99932.12;2237134;78;20958;-69
2022/05/27 13:29:39;;;;;;;5.55;2.98;;;;;;;14.28;76.23;99924.17;2238248;78;21068;-71
2022/05/27 13:33:02;;;;;;;4.55;2.92;;;;;;;14.28;76.05;99916.98;2254905;77;21005;-69
2022/05/27 13:36:15;;;;;;;8.10;2.62;;;;;;;14.30;75.73;99938.97;2256035;77;20931;-71
2022/05/27 13:39:22;;;;;;;4.45;2.52;;;;;;;14.26;75.22;99948.37;2246332;77;21028;-70
2022/05/27 13:42:35;;;;;;;4.30;2.62;;;;;;;14.13;74.71;99941.59;2228440;77;20954;-72
2022/05/27 13:46:00;;;;;;;8.20;2.40;;;;;;;14.09;74.91;99909.67;2248967;77;20997;-70
2022/05/27 13:49:21;;;;;;;5.50;2.30;;;;;;;13.99;74.55;99901.17;2249748;77;21052;-72
2022/05/27 13:52:28;;;;;;;4.60;2.75;;;;;;;13.94;74.56;99896.92;2216920;77;21413;-69
2022/05/27 13:55:30;;;;;;;5.55;2.87;;;;;;;14.00;74.46;99901.51;2250798;77;21472;-69
2022/05/27 13:58:35;;;;;;;5.65;2.65;;;;;;;14.05;74.77;99903.91;2249028;77;20985;-68
2022/05/27 14:01:44;;;;;;;5.50;2.92;;;;;;;14.24;74.44;99894.36;2246605;77;20951;-70
2022/05/27 14:04:56;;;;;;;6.00;2.62;;;;;;;14.65;74.78;99900.27;2248584;77;21029;-69
2022/05/27 14:08:03;;;;;;;6.08;2.50;;;;;;;14.97;74.13;99895.25;2250548;77;21013;-66
2022/05/27 14:11:27;;;;;;;3.30;2.37;;;;;;;15.13;73.85;99888.73;2249348;77;20954;-67
2022/05/27 14:14:50;;;;;;;4.10;1.95;;;;;;;15.38;72.96;99885.80;2246007;77;21456;-66
2022/05/27 14:17:51;;;;;;;6.28;2.50;;;;;;;15.37;71.75;99866.78;2249071;77;21473;-69
2022/05/27 14:24:17;;;;;;;5.85;2.25;;;;;;;15.22;71.19;99860.27;2257154;77;21065;-71
2022/05/27 14:27:22;;;;;;;4.90;2.05;;;;;;;15.24;70.54;99878.78;2246069;77;20994;-70
2022/05/27 14:30:38;;;;;;;8.95;2.80;;;;;;;15.24;70.71;99864.09;2242029;78;21076;-68
2022/05/27 14:33:44;;;;;;;5.95;2.47;;;;;;;15.27;70.86;99857.52;2244665;78;21000;-68
2022/05/27 14:36:56;;;;;;;3.87;2.40;;;;;;;15.31;70.35;99845.38;2237148;78;20990;-69
2022/05/27 14:40:05;;;;;;;5.40;2.62;;;;;;;15.45;70.42;99849.70;2239336;78;21035;-67
2022/05/27 14:43:24;;;;;;;4.42;2.10;;;;;;;15.59;70.04;99862.56;2239168;78;20927;-67
2022/05/27 14:46:33;;;;;;;3.45;2.20;;;;;;;15.68;69.49;99859.52;2226197;78;22214;-67
2022/05/27 14:49:49;;;;;;;3.72;2.22;;;;;;;15.71;68.95;99858.78;2245404;78;20998;-70
2022/05/27 14:52:56;;;;;;;5.53;2.25;;;;;;;15.73;68.77;99848.70;2245554;78;21032;-68
2022/05/27 14:56:00;;;;;;;4.03;2.40;;;;;;;15.79;69.37;99844.68;2248015;77;21506;-69
2022/05/27 14:59:06;;;;;;;5.97;2.12;;;;;;;15.90;69.12;99832.01;2236667;78;20960;-68
2022/05/27 15:02:13;;;;;;;8.00;1.80;;;;;;;15.95;68.63;99829.23;2242849;78;21040;-69
2022/05/27 15:05:29;;;;;;;3.40;1.85;;;;;;;15.91;68.66;99827.50;2234214;78;21036;-71
2022/05/27 15:08:36;;;;;;;6.62;1.90;;;;;;;16.01;68.76;99828.40;2234695;78;21041;-69
2022/05/27 15:11:38;;;;;;;5.00;2.02;;;;;;;16.05;68.50;99829.12;2221630;78;21101;-69
2022/05/27 15:14:44;;;;;;;3.83;1.98;;;;;;;16.10;68.38;99832.48;2242234;78;21383;-70
2022/05/27 15:17:51;;;;;;;3.42;1.72;;;;;;;16.15;67.94;99819.30;2245202;78;20954;-70
2022/05/27 15:21:03;;;;;;;7.35;2.20;;;;;;;16.14;67.73;99818.48;2243635;78;21489;-70
2022/05/27 15:24:13;;;;;;;3.02;1.98;;;;;;;16.17;67.36;99815.09;2242705;78;21486;-72
2022/05/27 15:34:00;;;;;;;3.52;1.85;;;;;;;16.16;67.03;99830.83;2239098;78;21506;-70
2022/05/27 15:37:00;;;;;;;3.47;1.82;;;;;;;16.15;66.45;99824.66;2238424;77;21493;-68
2022/05/27 15:40:02;;;;;;;7.53;1.77;;;;;;;16.17;66.64;99824.46;2236166;78;21029;-68